Aviation Digital Data Service (ADDS)

Output produced by METARs form (1100 UTC 20 September 2017)
found at http://www.aviationweather.gov/adds/metars/
 
METAR text: RJNK 201000Z 20008KT 160V220 9999 FEW010 SCT030 BKN070 21/17 Q1010
Conditions at: RJNK (KOMATSU (CIV/JAS, JP) observed 1000 UTC 20 September 2017
Temperature: 21.0°C (70°F)
Dewpoint: 17.0°C (63°F) [RH = 78%]
Pressure (altimeter): 29.82 inches Hg (1010.0 mb)
Winds: from the SSW (200 degrees) at 9 MPH (8 knots; 4.2 m/s)
Visibility: 6 or more miles (10+ km)
Ceiling: 7000 feet AGL
Clouds: few clouds at 1000 feet AGL
scattered clouds at 3000 feet AGL
broken clouds at 7000 feet AGL
Weather: no significant weather observed at this time